sensor_id;sensor_type;location;lat;lon;timestamp;pressure;altitude;pressure_sealevel;temperature;humidity
53300;BME280;39187;48.476;8.310;2023-04-15T00:01:20;90275.97;;;4.42;66.54
53300;BME280;39187;48.476;8.310;2023-04-15T00:03:47;90280.03;;;4.50;67.36
53300;BME280;39187;48.476;8.310;2023-04-15T00:06:12;90278.88;;;4.78;66.75
53300;BME280;39187;48.476;8.310;2023-04-15T00:08:38;90279.09;;;4.87;66.66
53300;BME280;39187;48.476;8.310;2023-04-15T00:11:04;90278.88;;;4.78;67.52
53300;BME280;39187;48.476;8.310;2023-04-15T00:13:30;90280.56;;;4.65;68.03
53300;BME280;39187;48.476;8.310;2023-04-15T00:15:58;90274.91;;;4.90;67.18
53300;BME280;39187;48.476;8.310;2023-04-15T00:18:23;90272.66;;;4.65;69.20
53300;BME280;39187;48.476;8.310;2023-04-15T00:20:49;90272.97;;;4.43;70.19
53300;BME280;39187;48.476;8.310;2023-04-15T00:23:15;90268.44;;;4.71;69.46
53300;BME280;39187;48.476;8.310;2023-04-15T00:25:40;90275.69;;;4.63;69.55
53300;BME280;39187;48.476;8.310;2023-04-15T00:28:06;90264.19;;;4.77;69.06
53300;BME280;39187;48.476;8.310;2023-04-15T00:30:32;90267.28;;;4.72;69.34
53300;BME280;39187;48.476;8.310;2023-04-15T00:32:59;90257.34;;;4.56;69.85
53300;BME280;39187;48.476;8.310;2023-04-15T00:35:26;90257.22;;;4.90;68.68
53300;BME280;39187;48.476;8.310;2023-04-15T00:37:52;90260.31;;;5.08;67.35
53300;BME280;39187;48.476;8.310;2023-04-15T00:40:20;90248.16;;;4.91;67.81
53300;BME280;39187;48.476;8.310;2023-04-15T00:42:45;90250.22;;;4.80;67.64
53300;BME280;39187;48.476;8.310;2023-04-15T00:45:11;90250.44;;;4.89;67.23
53300;BME280;39187;48.476;8.310;2023-04-15T00:47:38;90257.03;;;5.01;66.86
53300;BME280;39187;48.476;8.310;2023-04-15T00:50:06;90250.97;;;5.04;65.98
53300;BME280;39187;48.476;8.310;2023-04-15T00:52:32;90251.09;;;4.97;65.86
53300;BME280;39187;48.476;8.310;2023-04-15T00:54:58;90248.88;;;5.15;64.83
53300;BME280;39187;48.476;8.310;2023-04-15T00:57:25;90252.78;;;5.07;64.91
53300;BME280;39187;48.476;8.310;2023-04-15T00:59:51;90245.97;;;5.09;64.08
53300;BME280;39187;48.476;8.310;2023-04-15T01:02:18;90249.41;;;5.06;64.82
53300;BME280;39187;48.476;8.310;2023-04-15T01:04:44;90248.44;;;5.20;64.19
53300;BME280;39187;48.476;8.310;2023-04-15T01:07:09;90245.38;;;5.21;63.68
53300;BME280;39187;48.476;8.310;2023-04-15T01:09:35;90247.78;;;5.12;64.06
53300;BME280;39187;48.476;8.310;2023-04-15T01:12:00;90242.75;;;4.75;66.19
53300;BME280;39187;48.476;8.310;2023-04-15T01:14:27;90249.28;;;5.13;65.08
53300;BME280;39187;48.476;8.310;2023-04-15T01:16:53;90242.81;;;5.18;64.64
53300;BME280;39187;48.476;8.310;2023-04-15T01:19:19;90247.75;;;5.16;64.60
53300;BME280;39187;48.476;8.310;2023-04-15T01:21:44;90250.69;;;4.98;65.64
53300;BME280;39187;48.476;8.310;2023-04-15T01:24:12;90242.66;;;5.05;65.36
53300;BME280;39187;48.476;8.310;2023-04-15T01:26:40;90240.59;;;5.16;64.52
53300;BME280;39187;48.476;8.310;2023-04-15T01:29:06;90242.53;;;5.12;64.62
53300;BME280;39187;48.476;8.310;2023-04-15T01:31:32;90244.38;;;5.15;64.11
53300;BME280;39187;48.476;8.310;2023-04-15T01:33:58;90242.53;;;5.12;64.02
53300;BME280;39187;48.476;8.310;2023-04-15T01:36:24;90242.53;;;5.12;64.04
53300;BME280;39187;48.476;8.310;2023-04-15T01:38:50;90245.75;;;5.00;64.66
53300;BME280;39187;48.476;8.310;2023-04-15T01:41:16;90249.94;;;4.98;64.41
53300;BME280;39187;48.476;8.310;2023-04-15T01:43:45;90244.03;;;4.90;64.15
53300;BME280;39187;48.476;8.310;2023-04-15T01:46:11;90250.44;;;4.66;64.50
53300;BME280;39187;48.476;8.310;2023-04-15T01:48:36;90247.88;;;4.86;63.53
53300;BME280;39187;48.476;8.310;2023-04-15T01:51:02;90241.03;;;4.88;62.70
53300;BME280;39187;48.476;8.310;2023-04-15T01:53:28;90235.94;;;4.77;62.34
53300;BME280;39187;48.476;8.310;2023-04-15T01:55:54;90240.16;;;4.98;61.55
53300;BME280;39187;48.476;8.310;2023-04-15T01:58:19;90239.72;;;5.00;61.07
53300;BME280;39187;48.476;8.310;2023-04-15T02:00:47;90235.19;;;5.00;60.83
53300;BME280;39187;48.476;8.310;2023-04-15T02:03:12;90236.75;;;4.98;60.61
53300;BME280;39187;48.476;8.310;2023-04-15T02:05:38;90228.50;;;4.96;60.71
53300;BME280;39187;48.476;8.310;2023-04-15T02:08:03;90227.75;;;4.95;60.26
53300;BME280;39187;48.476;8.310;2023-04-15T02:10:29;90233.03;;;4.95;59.87
53300;BME280;39187;48.476;8.310;2023-04-15T02:12:55;90230.78;;;4.94;59.58
53300;BME280;39187;48.476;8.310;2023-04-15T02:15:20;90231.19;;;4.92;59.44
53300;BME280;39187;48.476;8.310;2023-04-15T02:17:46;90232.34;;;4.91;59.74
53300;BME280;39187;48.476;8.310;2023-04-15T02:20:15;90235.38;;;4.90;59.41
53300;BME280;39187;48.476;8.310;2023-04-15T02:22:42;90233.94;;;4.85;59.35
53300;BME280;39187;48.476;8.310;2023-04-15T02:25:08;90234.34;;;4.83;59.43
53300;BME280;39187;48.476;8.310;2023-04-15T02:27:34;90234.00;;;4.81;59.76
53300;BME280;39187;48.476;8.310;2023-04-15T02:30:00;90229.19;;;4.76;59.80
53300;BME280;39187;48.476;8.310;2023-04-15T02:32:26;90230.31;;;4.75;59.37
53300;BME280;39187;48.476;8.310;2023-04-15T02:34:51;90233.34;;;4.74;59.10
53300;BME280;39187;48.476;8.310;2023-04-15T02:37:17;90235.28;;;4.73;59.25
53300;BME280;39187;48.476;8.310;2023-04-15T02:39:44;90229.69;;;4.68;58.95
53300;BME280;39187;48.476;8.310;2023-04-15T02:42:10;90234.91;;;4.71;58.87
53300;BME280;39187;48.476;8.310;2023-04-15T02:44:35;90232.97;;;4.75;58.14
53300;BME280;39187;48.476;8.310;2023-04-15T02:47:02;90227.28;;;4.77;57.88
53300;BME280;39187;48.476;8.310;2023-04-15T02:49:29;90235.94;;;4.77;57.64
53300;BME280;39187;48.476;8.310;2023-04-15T02:51:55;90235.66;;;4.72;57.84
53300;BME280;39187;48.476;8.310;2023-04-15T02:54:23;90239.38;;;4.74;58.01
53300;BME280;39187;48.476;8.310;2023-04-15T02:56:49;90234.81;;;4.78;58.04
53300;BME280;39187;48.476;8.310;2023-04-15T02:59:15;90231.34;;;4.81;57.91
53300;BME280;39187;48.476;8.310;2023-04-15T03:01:40;90236.06;;;4.43;59.58
53300;BME280;39187;48.476;8.310;2023-04-15T03:04:06;90236.16;;;4.63;59.36
53300;BME280;39187;48.476;8.310;2023-04-15T03:06:33;90236.44;;;4.69;59.37
53300;BME280;39187;48.476;8.310;2023-04-15T03:08:59;90242.00;;;4.74;59.23
53300;BME280;39187;48.476;8.310;2023-04-15T03:11:28;90234.41;;;4.80;59.10
53300;BME280;39187;48.476;8.310;2023-04-15T03:13:53;90238.19;;;4.79;59.24
53300;BME280;39187;48.476;8.310;2023-04-15T03:16:19;90231.47;;;4.74;59.65
53300;BME280;39187;48.476;8.310;2023-04-15T03:18:45;90239.34;;;4.78;59.58
53300;BME280;39187;48.476;8.310;2023-04-15T03:21:10;90235.19;;;4.77;59.86
53300;BME280;39187;48.476;8.310;2023-04-15T03:23:36;90239.19;;;4.62;60.44
53300;BME280;39187;48.476;8.310;2023-04-15T03:26:02;90225.13;;;4.72;60.50
53300;BME280;39187;48.476;8.310;2023-04-15T03:28:28;90236.16;;;4.63;60.78
53300;BME280;39187;48.476;8.310;2023-04-15T03:30:54;90230.97;;;4.60;60.91
53300;BME280;39187;48.476;8.310;2023-04-15T03:33:20;90232.41;;;4.37;62.30
53300;BME280;39187;48.476;8.310;2023-04-15T03:35:45;90233.41;;;4.47;62.56
53300;BME280;39187;48.476;8.310;2023-04-15T03:38:11;90231.16;;;4.46;62.46
53300;BME280;39187;48.476;8.310;2023-04-15T03:40:40;90230.06;;;4.43;62.45
53300;BME280;39187;48.476;8.310;2023-04-15T03:43:06;90235.03;;;4.37;62.62
53300;BME280;39187;48.476;8.310;2023-04-15T03:45:31;90235.00;;;4.41;62.63
53300;BME280;39187;48.476;8.310;2023-04-15T03:47:57;90234.59;;;4.42;62.72
53300;BME280;39187;48.476;8.310;2023-04-15T03:50:22;90237.31;;;4.35;62.62
53300;BME280;39187;48.476;8.310;2023-04-15T03:52:48;90233.91;;;4.38;62.61
53300;BME280;39187;48.476;8.310;2023-04-15T03:55:13;90227.66;;;4.29;62.88
53300;BME280;39187;48.476;8.310;2023-04-15T03:57:40;90234.69;;;4.35;62.45
53300;BME280;39187;48.476;8.310;2023-04-15T04:00:06;90222.63;;;4.38;62.80
53300;BME280;39187;48.476;8.310;2023-04-15T04:02:33;90226.38;;;4.37;62.56
53300;BME280;39187;48.476;8.310;2023-04-15T04:04:59;90222.25;;;4.36;62.39
53300;BME280;39187;48.476;8.310;2023-04-15T04:07:25;90229.78;;;4.37;62.62
53300;BME280;39187;48.476;8.310;2023-04-15T04:09:50;90235.03;;;4.37;62.57
53300;BME280;39187;48.476;8.310;2023-04-15T04:12:16;90230.56;;;4.34;62.75
53300;BME280;39187;48.476;8.310;2023-04-15T04:14:42;90232.78;;;4.36;62.95
53300;BME280;39187;48.476;8.310;2023-04-15T04:17:07;90227.13;;;4.37;62.54
53300;BME280;39187;48.476;8.310;2023-04-15T04:19:33;90237.28;;;4.39;62.59
53300;BME280;39187;48.476;8.310;2023-04-15T04:21:59;90244.06;;;4.36;62.65
53300;BME280;39187;48.476;8.310;2023-04-15T04:24:24;90235.78;;;4.38;62.84
53300;BME280;39187;48.476;8.310;2023-04-15T04:26:50;90239.16;;;4.38;63.31
53300;BME280;39187;48.476;8.310;2023-04-15T04:29:16;90237.63;;;4.41;63.08
53300;BME280;39187;48.476;8.310;2023-04-15T04:31:41;90231.63;;;4.40;62.95
53300;BME280;39187;48.476;8.310;2023-04-15T04:34:07;90235.56;;;4.29;63.72
53300;BME280;39187;48.476;8.310;2023-04-15T04:36:32;90237.81;;;4.27;64.06
53300;BME280;39187;48.476;8.310;2023-04-15T04:38:58;90236.34;;;4.26;63.98
53300;BME280;39187;48.476;8.310;2023-04-15T04:41:23;90237.47;;;4.25;64.17
53300;BME280;39187;48.476;8.310;2023-04-15T04:43:49;90231.13;;;4.22;64.61
53300;BME280;39187;48.476;8.310;2023-04-15T04:46:14;90235.94;;;4.27;64.55
53300;BME280;39187;48.476;8.310;2023-04-15T04:48:40;90233.25;;;4.31;64.32
53300;BME280;39187;48.476;8.310;2023-04-15T04:51:06;90236.97;;;4.33;64.75
53300;BME280;39187;48.476;8.310;2023-04-15T04:53:32;90236.13;;;4.40;64.60
53300;BME280;39187;48.476;8.310;2023-04-15T04:55:57;90234.16;;;4.48;64.69
53300;BME280;39187;48.476;8.310;2023-04-15T04:58:23;90236.97;;;4.60;64.47
53300;BME280;39187;48.476;8.310;2023-04-15T05:00:48;90241.97;;;4.78;64.54
53300;BME280;39187;48.476;8.310;2023-04-15T05:03:14;90244.84;;;5.10;64.98
53300;BME280;39187;48.476;8.310;2023-04-15T05:05:39;90240.06;;;5.45;64.43
53300;BME280;39187;48.476;8.310;2023-04-15T05:08:06;90237.13;;;5.82;63.91
53300;BME280;39187;48.476;8.310;2023-04-15T05:10:31;90240.69;;;6.31;62.18
53300;BME280;39187;48.476;8.310;2023-04-15T05:12:57;90241.22;;;6.75;61.43
53300;BME280;39187;48.476;8.310;2023-04-15T05:15:23;90229.22;;;7.19;59.10
53300;BME280;39187;48.476;8.310;2023-04-15T05:17:48;90237.66;;;7.59;57.89
53300;BME280;39187;48.476;8.310;2023-04-15T05:20:14;90235.94;;;7.81;57.45
53300;BME280;39187;48.476;8.310;2023-04-15T05:22:40;90234.22;;;8.16;57.04
53300;BME280;39187;48.476;8.310;2023-04-15T05:25:05;90236.81;;;7.62;58.56
53300;BME280;39187;48.476;8.310;2023-04-15T05:27:31;90244.63;;;8.11;58.27
53300;BME280;39187;48.476;8.310;2023-04-15T05:29:56;90243.22;;;8.06;59.15
53300;BME280;39187;48.476;8.310;2023-04-15T05:32:22;90242.03;;;8.36;59.62
53300;BME280;39187;48.476;8.310;2023-04-15T05:34:48;90234.84;;;8.87;57.40
53300;BME280;39187;48.476;8.310;2023-04-15T05:37:13;90235.75;;;9.87;55.02
53300;BME280;39187;48.476;8.310;2023-04-15T05:39:39;90242.41;;;9.70;54.51
53300;BME280;39187;48.476;8.310;2023-04-15T05:42:04;90240.81;;;9.94;53.46
53300;BME280;39187;48.476;8.310;2023-04-15T05:44:30;90237.78;;;9.83;54.36
53300;BME280;39187;48.476;8.310;2023-04-15T05:46:56;90245.03;;;9.83;54.85
53300;BME280;39187;48.476;8.310;2023-04-15T05:49:22;90240.97;;;9.91;54.40
53300;BME280;39187;48.476;8.310;2023-04-15T05:51:47;90245.44;;;9.59;55.85
53300;BME280;39187;48.476;8.310;2023-04-15T05:54:13;90250.06;;;10.24;54.54
53300;BME280;39187;48.476;8.310;2023-04-15T05:56:39;90241.91;;;9.62;55.94
53300;BME280;39187;48.476;8.310;2023-04-15T05:59:04;90252.72;;;10.46;54.45
53300;BME280;39187;48.476;8.310;2023-04-15T06:01:32;90247.44;;;11.26;53.46
53300;BME280;39187;48.476;8.310;2023-04-15T06:03:58;90242.34;;;11.77;51.77
53300;BME280;39187;48.476;8.310;2023-04-15T06:06:24;90242.03;;;12.21;49.99
53300;BME280;39187;48.476;8.310;2023-04-15T06:08:51;90240.75;;;12.76;48.55
53300;BME280;39187;48.476;8.310;2023-04-15T06:11:17;90240.31;;;13.20;47.26
53300;BME280;39187;48.476;8.310;2023-04-15T06:13:42;90240.81;;;13.00;47.63
53300;BME280;39187;48.476;8.310;2023-04-15T06:16:08;90236.53;;;13.59;45.80
53300;BME280;39187;48.476;8.310;2023-04-15T06:18:33;90242.31;;;13.34;45.32
53300;BME280;39187;48.476;8.310;2023-04-15T06:20:59;90239.09;;;14.16;43.72
53300;BME280;39187;48.476;8.310;2023-04-15T06:23:24;90231.00;;;13.39;44.39
53300;BME280;39187;48.476;8.310;2023-04-15T06:25:50;90233.41;;;13.85;42.70
53300;BME280;39187;48.476;8.310;2023-04-15T06:28:15;90233.59;;;14.34;42.61
53300;BME280;39187;48.476;8.310;2023-04-15T06:30:41;90243.91;;;14.51;42.22
53300;BME280;39187;48.476;8.310;2023-04-15T06:33:06;90232.72;;;14.81;42.16
53300;BME280;39187;48.476;8.310;2023-04-15T06:35:32;90233.84;;;14.90;42.38
53300;BME280;39187;48.476;8.310;2023-04-15T06:37:57;90226.41;;;15.63;40.94
53300;BME280;39187;48.476;8.310;2023-04-15T06:40:23;90233.13;;;14.36;42.62
53300;BME280;39187;48.476;8.310;2023-04-15T06:42:48;90237.81;;;14.94;41.98
53300;BME280;39187;48.476;8.310;2023-04-15T06:45:14;90240.25;;;15.27;41.11
53300;BME280;39187;48.476;8.310;2023-04-15T06:47:40;90238.94;;;14.58;41.68
53300;BME280;39187;48.476;8.310;2023-04-15T06:50:06;90243.09;;;14.35;42.05
53300;BME280;39187;48.476;8.310;2023-04-15T06:52:34;90244.19;;;14.82;41.43
53300;BME280;39187;48.476;8.310;2023-04-15T06:55:00;90241.06;;;13.92;42.08
53300;BME280;39187;48.476;8.310;2023-04-15T06:57:26;90243.78;;;13.68;43.12
53300;BME280;39187;48.476;8.310;2023-04-15T06:59:53;90243.44;;;13.75;41.89
53300;BME280;39187;48.476;8.310;2023-04-15T07:02:19;90238.59;;;14.03;41.41
53300;BME280;39187;48.476;8.310;2023-04-15T07:04:45;90244.16;;;14.38;40.76
53300;BME280;39187;48.476;8.310;2023-04-15T07:07:11;90239.66;;;14.44;40.63
53300;BME280;39187;48.476;8.310;2023-04-15T07:09:36;90241.28;;;14.41;40.49
53300;BME280;39187;48.476;8.310;2023-04-15T07:12:02;90241.53;;;13.67;41.71
53300;BME280;39187;48.476;8.310;2023-04-15T07:14:28;90237.66;;;13.11;44.15
53300;BME280;39187;48.476;8.310;2023-04-15T07:16:54;90237.81;;;12.56;45.71
53300;BME280;39187;48.476;8.310;2023-04-15T07:19:20;90240.97;;;12.45;44.78
53300;BME280;39187;48.476;8.310;2023-04-15T07:21:46;90240.03;;;12.67;45.48
53300;BME280;39187;48.476;8.310;2023-04-15T07:24:12;90235.38;;;12.85;42.83
53300;BME280;39187;48.476;8.310;2023-04-15T07:26:41;90235.44;;;13.09;41.54
53300;BME280;39187;48.476;8.310;2023-04-15T07:29:06;90232.41;;;13.97;40.63
53300;BME280;39187;48.476;8.310;2023-04-15T07:31:32;90232.91;;;14.63;40.22
53300;BME280;39187;48.476;8.310;2023-04-15T07:33:57;90241.97;;;14.66;39.44
53300;BME280;39187;48.476;8.310;2023-04-15T07:36:24;90239.66;;;14.88;38.89
53300;BME280;39187;48.476;8.310;2023-04-15T07:38:49;90244.72;;;15.15;39.55
53300;BME280;39187;48.476;8.310;2023-04-15T07:41:15;90236.59;;;15.45;39.06
53300;BME280;39187;48.476;8.310;2023-04-15T07:43:40;90244.00;;;15.85;37.50
53300;BME280;39187;48.476;8.310;2023-04-15T07:46:06;90235.34;;;15.95;37.27
53300;BME280;39187;48.476;8.310;2023-04-15T07:48:31;90240.41;;;16.34;36.18
53300;BME280;39187;48.476;8.310;2023-04-15T07:50:57;90246.34;;;15.97;37.12
53300;BME280;39187;48.476;8.310;2023-04-15T07:53:23;90234.88;;;15.27;32.74
53300;BME280;39187;48.476;8.310;2023-04-15T07:55:48;90242.88;;;14.63;33.86
53300;BME280;39187;48.476;8.310;2023-04-15T07:58:14;90242.41;;;15.08;33.42
53300;BME280;39187;48.476;8.310;2023-04-15T08:00:39;90247.56;;;15.12;32.87
53300;BME280;39187;48.476;8.310;2023-04-15T08:03:05;90244.25;;;14.73;33.40
53300;BME280;39187;48.476;8.310;2023-04-15T08:05:31;90242.25;;;14.68;34.06
53300;BME280;39187;48.476;8.310;2023-04-15T08:07:57;90249.75;;;14.78;33.63
53300;BME280;39187;48.476;8.310;2023-04-15T08:10:23;90249.16;;;14.60;35.12
53300;BME280;39187;48.476;8.310;2023-04-15T08:12:48;90249.03;;;13.30;37.45
53300;BME280;39187;48.476;8.310;2023-04-15T08:15:14;90253.44;;;14.28;36.07
53300;BME280;39187;48.476;8.310;2023-04-15T08:17:39;90253.63;;;13.62;37.63
53300;BME280;39187;48.476;8.310;2023-04-15T08:20:05;90251.16;;;12.65;37.03
53300;BME280;39187;48.476;8.310;2023-04-15T08:22:31;90266.41;;;13.25;36.18
53300;BME280;39187;48.476;8.310;2023-04-15T08:24:57;90255.31;;;13.08;37.29
53300;BME280;39187;48.476;8.310;2023-04-15T08:27:22;90266.56;;;13.31;36.62
53300;BME280;39187;48.476;8.310;2023-04-15T08:29:48;90266.34;;;11.86;37.15
53300;BME280;39187;48.476;8.310;2023-04-15T08:32:13;90275.81;;;10.80;39.53
53300;BME280;39187;48.476;8.310;2023-04-15T08:34:39;90277.88;;;12.56;38.72
53300;BME280;39187;48.476;8.310;2023-04-15T08:37:04;90271.03;;;12.73;37.19
53300;BME280;39187;48.476;8.310;2023-04-15T08:39:30;90277.88;;;12.38;37.28
53300;BME280;39187;48.476;8.310;2023-04-15T08:42:11;90277.63;;;12.96;37.15
53300;BME280;39187;48.476;8.310;2023-04-15T08:44:37;90271.81;;;13.49;36.07
53300;BME280;39187;48.476;8.310;2023-04-15T08:47:07;90285.69;;;12.69;37.62
53300;BME280;39187;48.476;8.310;2023-04-15T08:49:38;90274.50;;;13.40;35.99
53300;BME280;39187;48.476;8.310;2023-04-15T08:52:04;90284.81;;;12.63;36.97
53300;BME280;39187;48.476;8.310;2023-04-15T08:54:30;90285.59;;;11.81;39.17
53300;BME280;39187;48.476;8.310;2023-04-15T08:56:57;90277.56;;;12.72;36.52
53300;BME280;39187;48.476;8.310;2023-04-15T08:59:23;90291.09;;;10.98;39.71
53300;BME280;39187;48.476;8.310;2023-04-15T09:01:49;90280.13;;;12.39;37.68
53300;BME280;39187;48.476;8.310;2023-04-15T09:04:16;90281.56;;;12.50;36.20
53300;BME280;39187;48.476;8.310;2023-04-15T09:06:41;90278.31;;;12.55;36.28
53300;BME280;39187;48.476;8.310;2023-04-15T09:09:07;90291.47;;;12.85;36.15
53300;BME280;39187;48.476;8.310;2023-04-15T09:11:33;90287.16;;;11.60;37.15
53300;BME280;39187;48.476;8.310;2023-04-15T09:13:58;90295.97;;;11.88;36.54
53300;BME280;39187;48.476;8.310;2023-04-15T09:16:24;90292.41;;;12.46;34.71
53300;BME280;39187;48.476;8.310;2023-04-15T09:18:50;90296.28;;;11.90;37.30
53300;BME280;39187;48.476;8.310;2023-04-15T09:21:16;90284.84;;;12.44;36.75
53300;BME280;39187;48.476;8.310;2023-04-15T09:23:55;90303.69;;;12.04;36.56
53300;BME280;39187;48.476;8.310;2023-04-15T09:29:05;90294.75;;;12.62;37.57
53300;BME280;39187;48.476;8.310;2023-04-15T09:31:31;90292.75;;;12.99;37.66
53300;BME280;39187;48.476;8.310;2023-04-15T09:33:57;90303.69;;;11.95;37.70
53300;BME280;39187;48.476;8.310;2023-04-15T09:36:23;90305.00;;;12.55;37.49
53300;BME280;39187;48.476;8.310;2023-04-15T09:38:56;90299.38;;;12.43;35.99
53300;BME280;39187;48.476;8.310;2023-04-15T09:41:23;90299.69;;;12.09;37.58
53300;BME280;39187;48.476;8.310;2023-04-15T09:43:49;90307.66;;;12.55;37.13
53300;BME280;39187;48.476;8.310;2023-04-15T09:46:14;90302.03;;;12.16;37.10
53300;BME280;39187;48.476;8.310;2023-04-15T09:48:40;90302.06;;;12.25;37.34
53300;BME280;39187;48.476;8.310;2023-04-15T09:51:06;90310.50;;;11.96;37.54
53300;BME280;39187;48.476;8.310;2023-04-15T09:53:33;90306.31;;;12.68;38.21
53300;BME280;39187;48.476;8.310;2023-04-15T09:56:00;90310.91;;;12.77;37.28
53300;BME280;39187;48.476;8.310;2023-04-15T10:00:54;90312.34;;;13.47;37.06
53300;BME280;39187;48.476;8.310;2023-04-15T10:03:32;90311.03;;;12.92;36.99
53300;BME280;39187;48.476;8.310;2023-04-15T10:05:59;90310.25;;;13.18;37.04
53300;BME280;39187;48.476;8.310;2023-04-15T10:08:28;90315.19;;;12.83;36.61
53300;BME280;39187;48.476;8.310;2023-04-15T10:10:54;90314.66;;;12.43;37.76
53300;BME280;39187;48.476;8.310;2023-04-15T10:13:23;90326.88;;;11.27;39.59
53300;BME280;39187;48.476;8.310;2023-04-15T10:16:13;90330.16;;;11.32;46.15
53300;BME280;39187;48.476;8.310;2023-04-15T10:18:44;90317.16;;;10.28;53.96
53300;BME280;39187;48.476;8.310;2023-04-15T10:21:10;90334.75;;;11.40;50.39
53300;BME280;39187;48.476;8.310;2023-04-15T10:23:38;90340.56;;;11.88;47.99
53300;BME280;39187;48.476;8.310;2023-04-15T10:26:04;90341.34;;;12.16;46.96
53300;BME280;39187;48.476;8.310;2023-04-15T10:28:30;90335.41;;;12.30;46.29
53300;BME280;39187;48.476;8.310;2023-04-15T10:30:56;90337.59;;;11.86;47.84
53300;BME280;39187;48.476;8.310;2023-04-15T10:33:24;90348.09;;;11.09;53.13
53300;BME280;39187;48.476;8.310;2023-04-15T10:35:53;90346.75;;;11.85;50.37
53300;BME280;39187;48.476;8.310;2023-04-15T10:38:37;90355.06;;;11.78;49.43
53300;BME280;39187;48.476;8.310;2023-04-15T10:46:21;90360.00;;;12.25;49.64
53300;BME280;39187;48.476;8.310;2023-04-15T10:48:51;90362.59;;;11.79;51.23
53300;BME280;39187;48.476;8.310;2023-04-15T10:51:30;90367.56;;;11.28;52.22
53300;BME280;39187;48.476;8.310;2023-04-15T10:53:58;90374.19;;;11.54;50.20
53300;BME280;39187;48.476;8.310;2023-04-15T10:56:24;90366.16;;;11.76;49.21
53300;BME280;39187;48.476;8.310;2023-04-15T10:58:50;90368.44;;;12.05;48.50
53300;BME280;39187;48.476;8.310;2023-04-15T11:01:18;90370.84;;;12.21;44.69
53300;BME280;39187;48.476;8.310;2023-04-15T11:03:45;90375.00;;;12.22;45.58
53300;BME280;39187;48.476;8.310;2023-04-15T11:06:11;90368.03;;;12.34;45.89
53300;BME280;39187;48.476;8.310;2023-04-15T11:08:58;90373.50;;;12.21;44.49
53300;BME280;39187;48.476;8.310;2023-04-15T11:12:04;90367.69;;;12.04;46.08
53300;BME280;39187;48.476;8.310;2023-04-15T11:14:32;90381.88;;;11.92;44.10
53300;BME280;39187;48.476;8.310;2023-04-15T11:16:58;90381.63;;;10.76;41.37
53300;BME280;39187;48.476;8.310;2023-04-15T11:19:24;90386.75;;;10.14;42.13
53300;BME280;39187;48.476;8.310;2023-04-15T11:21:50;90395.72;;;9.95;42.14
53300;BME280;39187;48.476;8.310;2023-04-15T11:24:26;90384.03;;;10.39;41.55
53300;BME280;39187;48.476;8.310;2023-04-15T11:26:56;90382.72;;;9.50;41.24
53300;BME280;39187;48.476;8.310;2023-04-15T11:29:28;90387.09;;;10.03;41.29
53300;BME280;39187;48.476;8.310;2023-04-15T11:32:08;90392.41;;;10.16;40.70
53300;BME280;39187;48.476;8.310;2023-04-15T11:34:33;90398.53;;;10.26;39.61
53300;BME280;39187;48.476;8.310;2023-04-15T11:37:03;90401.50;;;10.84;41.59
53300;BME280;39187;48.476;8.310;2023-04-15T11:39:29;90398.78;;;10.53;39.30
53300;BME280;39187;48.476;8.310;2023-04-15T11:41:55;90399.41;;;10.79;39.90
53300;BME280;39187;48.476;8.310;2023-04-15T11:44:20;90403.81;;;10.04;39.84
53300;BME280;39187;48.476;8.310;2023-04-15T11:46:46;90404.75;;;10.44;40.23
53300;BME280;39187;48.476;8.310;2023-04-15T11:49:25;90405.84;;;9.87;38.98
53300;BME280;39187;48.476;8.310;2023-04-15T11:51:51;90398.25;;;10.11;39.66
53300;BME280;39187;48.476;8.310;2023-04-15T11:54:19;90411.25;;;9.96;38.36
53300;BME280;39187;48.476;8.310;2023-04-15T11:56:50;90405.50;;;10.11;39.82
53300;BME280;39187;48.476;8.310;2023-04-15T11:59:16;90415.69;;;10.25;39.18
53300;BME280;39187;48.476;8.310;2023-04-15T12:01:41;90415.50;;;10.54;37.66
53300;BME280;39187;48.476;8.310;2023-04-15T12:04:12;90421.84;;;10.34;37.38
53300;BME280;39187;48.476;8.310;2023-04-15T12:06:37;90417.69;;;10.33;37.58
53300;BME280;39187;48.476;8.310;2023-04-15T12:11:49;90433.78;;;10.86;38.19
53300;BME280;39187;48.476;8.310;2023-04-15T12:14:30;90442.16;;;10.28;38.39
53300;BME280;39187;48.476;8.310;2023-04-15T12:17:05;90442.91;;;10.29;38.43
53300;BME280;39187;48.476;8.310;2023-04-15T12:19:36;90444.44;;;9.92;37.63
53300;BME280;39187;48.476;8.310;2023-04-15T12:22:04;90451.34;;;9.77;38.26
53300;BME280;39187;48.476;8.310;2023-04-15T12:24:35;90452.72;;;9.69;37.96
53300;BME280;39187;48.476;8.310;2023-04-15T12:27:05;90457.09;;;9.88;38.28
53300;BME280;39187;48.476;8.310;2023-04-15T12:29:32;90459.75;;;9.88;39.67
53300;BME280;39187;48.476;8.310;2023-04-15T12:32:12;90460.47;;;10.01;41.41
53300;BME280;39187;48.476;8.310;2023-04-15T12:34:44;90463.97;;;10.36;41.10
53300;BME280;39187;48.476;8.310;2023-04-15T12:37:11;90465.28;;;10.53;41.10
53300;BME280;39187;48.476;8.310;2023-04-15T12:39:41;90476.22;;;10.21;42.25
53300;BME280;39187;48.476;8.310;2023-04-15T12:42:07;90482.47;;;10.27;42.75
53300;BME280;39187;48.476;8.310;2023-04-15T12:44:35;90487.69;;;9.80;43.40
53300;BME280;39187;48.476;8.310;2023-04-15T12:47:01;90487.38;;;10.16;42.71
53300;BME280;39187;48.476;8.310;2023-04-15T12:49:27;90497.16;;;10.06;42.84
53300;BME280;39187;48.476;8.310;2023-04-15T12:51:55;90494.50;;;9.68;41.26
53300;BME280;39187;48.476;8.310;2023-04-15T12:54:20;90500.88;;;10.09;41.14
53300;BME280;39187;48.476;8.310;2023-04-15T12:56:47;90504.50;;;10.15;41.54
53300;BME280;39187;48.476;8.310;2023-04-15T12:59:14;90500.56;;;10.06;39.99
53300;BME280;39187;48.476;8.310;2023-04-15T13:01:40;90515.00;;;9.68;40.07
53300;BME280;39187;48.476;8.310;2023-04-15T13:04:06;90510.22;;;9.75;39.37
53300;BME280;39187;48.476;8.310;2023-04-15T13:06:32;90512.34;;;10.05;38.48
53300;BME280;39187;48.476;8.310;2023-04-15T13:09:01;90513.09;;;9.55;39.93
53300;BME280;39187;48.476;8.310;2023-04-15T13:11:28;90516.50;;;10.06;39.82
53300;BME280;39187;48.476;8.310;2023-04-15T13:14:08;90519.72;;;10.27;38.86
53300;BME280;39187;48.476;8.310;2023-04-15T13:16:35;90525.22;;;10.07;38.95